sensor_id;sensor_type;location;lat;lon;timestamp;P1;durP1;ratioP1;P2;durP2;ratioP2
70800;SDS011;59616;52.170;5.386;2023-07-31T00:01:30;5.05;;;1.10;;
70800;SDS011;59616;52.170;5.386;2023-07-31T00:03:58;2.50;;;1.10;;
70800;SDS011;59616;52.170;5.386;2023-07-31T00:06:26;5.55;;;1.30;;
70800;SDS011;59616;52.170;5.386;2023-07-31T00:08:53;6.13;;;1.30;;
70800;SDS011;59616;52.170;5.386;2023-07-31T00:11:20;9.35;;;1.25;;
70800;SDS011;59616;52.170;5.386;2023-07-31T00:13:47;6.43;;;1.23;;
70800;SDS011;59616;52.170;5.386;2023-07-31T00:16:14;2.53;;;1.00;;
70800;SDS011;59616;52.170;5.386;2023-07-31T00:18:42;2.40;;;1.10;;
70800;SDS011;59616;52.170;5.386;2023-07-31T00:21:09;5.00;;;1.40;;
70800;SDS011;59616;52.170;5.386;2023-07-31T00:23:36;4.82;;;1.48;;
70800;SDS011;59616;52.170;5.386;2023-07-31T00:26:03;4.55;;;1.38;;
70800;SDS011;59616;52.170;5.386;2023-07-31T00:28:31;4.03;;;1.25;;
70800;SDS011;59616;52.170;5.386;2023-07-31T00:30:59;2.72;;;1.20;;
70800;SDS011;59616;52.170;5.386;2023-07-31T00:33:26;4.22;;;1.50;;
70800;SDS011;59616;52.170;5.386;2023-07-31T00:35:54;5.93;;;1.60;;
70800;SDS011;59616;52.170;5.386;2023-07-31T00:38:22;6.53;;;1.90;;
70800;SDS011;59616;52.170;5.386;2023-07-31T00:40:49;7.25;;;1.98;;
70800;SDS011;59616;52.170;5.386;2023-07-31T00:43:16;11.10;;;2.63;;
70800;SDS011;59616;52.170;5.386;2023-07-31T00:45:44;11.43;;;3.10;;
70800;SDS011;59616;52.170;5.386;2023-07-31T00:48:11;13.05;;;2.90;;
70800;SDS011;59616;52.170;5.386;2023-07-31T00:50:39;11.93;;;3.08;;
70800;SDS011;59616;52.170;5.386;2023-07-31T00:53:06;14.57;;;3.13;;
70800;SDS011;59616;52.170;5.386;2023-07-31T00:55:34;15.85;;;3.90;;
70800;SDS011;59616;52.170;5.386;2023-07-31T00:58:01;17.30;;;4.10;;
70800;SDS011;59616;52.170;5.386;2023-07-31T01:00:28;14.50;;;3.50;;
70800;SDS011;59616;52.170;5.386;2023-07-31T01:02:55;14.77;;;3.15;;
70800;SDS011;59616;52.170;5.386;2023-07-31T01:05:25;19.52;;;4.18;;
70800;SDS011;59616;52.170;5.386;2023-07-31T01:08:00;18.80;;;4.00;;
70800;SDS011;59616;52.170;5.386;2023-07-31T01:10:33;17.95;;;4.00;;
70800;SDS011;59616;52.170;5.386;2023-07-31T01:13:02;17.75;;;4.15;;
70800;SDS011;59616;52.170;5.386;2023-07-31T01:15:30;17.63;;;4.00;;
70800;SDS011;59616;52.170;5.386;2023-07-31T01:17:57;14.88;;;3.13;;
70800;SDS011;59616;52.170;5.386;2023-07-31T01:20:25;10.60;;;2.80;;
70800;SDS011;59616;52.170;5.386;2023-07-31T01:23:07;7.57;;;2.30;;
70800;SDS011;59616;52.170;5.386;2023-07-31T01:28:14;13.07;;;2.60;;
70800;SDS011;59616;52.170;5.386;2023-07-31T01:30:44;7.97;;;2.33;;
70800;SDS011;59616;52.170;5.386;2023-07-31T01:33:14;7.90;;;2.53;;
70800;SDS011;59616;52.170;5.386;2023-07-31T01:35:43;10.63;;;2.67;;
70800;SDS011;59616;52.170;5.386;2023-07-31T01:38:11;7.25;;;2.03;;
70800;SDS011;59616;52.170;5.386;2023-07-31T01:40:41;8.38;;;1.70;;
70800;SDS011;59616;52.170;5.386;2023-07-31T01:43:09;7.35;;;2.00;;
70800;SDS011;59616;52.170;5.386;2023-07-31T01:45:36;6.95;;;1.83;;
70800;SDS011;59616;52.170;5.386;2023-07-31T01:48:03;6.70;;;1.70;;
70800;SDS011;59616;52.170;5.386;2023-07-31T01:50:31;7.80;;;1.92;;
70800;SDS011;59616;52.170;5.386;2023-07-31T01:52:58;9.20;;;2.10;;
70800;SDS011;59616;52.170;5.386;2023-07-31T01:55:25;14.80;;;2.78;;
70800;SDS011;59616;52.170;5.386;2023-07-31T01:57:53;14.80;;;3.35;;
70800;SDS011;59616;52.170;5.386;2023-07-31T02:00:20;19.88;;;4.18;;
70800;SDS011;59616;52.170;5.386;2023-07-31T02:02:47;22.52;;;4.20;;
70800;SDS011;59616;52.170;5.386;2023-07-31T02:05:14;20.65;;;4.38;;
70800;SDS011;59616;52.170;5.386;2023-07-31T02:07:42;18.48;;;3.95;;
70800;SDS011;59616;52.170;5.386;2023-07-31T02:10:09;17.80;;;3.83;;
70800;SDS011;59616;52.170;5.386;2023-07-31T02:12:36;19.08;;;3.95;;
70800;SDS011;59616;52.170;5.386;2023-07-31T02:15:03;19.15;;;4.28;;
70800;SDS011;59616;52.170;5.386;2023-07-31T02:17:30;16.20;;;3.58;;
70800;SDS011;59616;52.170;5.386;2023-07-31T02:19:59;17.05;;;4.32;;
70800;SDS011;59616;52.170;5.386;2023-07-31T02:22:26;19.92;;;3.90;;
70800;SDS011;59616;52.170;5.386;2023-07-31T02:24:55;15.68;;;3.83;;
70800;SDS011;59616;52.170;5.386;2023-07-31T02:27:22;19.52;;;3.80;;
70800;SDS011;59616;52.170;5.386;2023-07-31T02:29:54;14.55;;;4.03;;
70800;SDS011;59616;52.170;5.386;2023-07-31T02:32:21;16.20;;;3.72;;
70800;SDS011;59616;52.170;5.386;2023-07-31T02:34:48;17.40;;;3.95;;
70800;SDS011;59616;52.170;5.386;2023-07-31T02:37:16;18.10;;;4.50;;
70800;SDS011;59616;52.170;5.386;2023-07-31T02:39:43;17.75;;;3.97;;
70800;SDS011;59616;52.170;5.386;2023-07-31T02:42:10;17.25;;;4.15;;
70800;SDS011;59616;52.170;5.386;2023-07-31T02:44:38;19.25;;;4.05;;
70800;SDS011;59616;52.170;5.386;2023-07-31T02:47:05;19.33;;;3.42;;
70800;SDS011;59616;52.170;5.386;2023-07-31T02:49:33;15.80;;;3.95;;
70800;SDS011;59616;52.170;5.386;2023-07-31T02:52:00;17.27;;;4.18;;
70800;SDS011;59616;52.170;5.386;2023-07-31T02:54:27;15.70;;;4.30;;
70800;SDS011;59616;52.170;5.386;2023-07-31T02:56:54;16.88;;;3.75;;
70800;SDS011;59616;52.170;5.386;2023-07-31T02:59:21;19.55;;;4.18;;
70800;SDS011;59616;52.170;5.386;2023-07-31T03:01:49;19.90;;;4.38;;
70800;SDS011;59616;52.170;5.386;2023-07-31T03:04:16;18.60;;;4.13;;
70800;SDS011;59616;52.170;5.386;2023-07-31T03:06:44;20.58;;;4.10;;
70800;SDS011;59616;52.170;5.386;2023-07-31T03:09:11;21.38;;;4.78;;
70800;SDS011;59616;52.170;5.386;2023-07-31T03:11:38;19.50;;;4.18;;
70800;SDS011;59616;52.170;5.386;2023-07-31T03:14:06;22.80;;;5.03;;
70800;SDS011;59616;52.170;5.386;2023-07-31T03:16:33;18.52;;;4.32;;
70800;SDS011;59616;52.170;5.386;2023-07-31T03:19:00;18.85;;;4.53;;
70800;SDS011;59616;52.170;5.386;2023-07-31T03:21:27;23.48;;;4.60;;
70800;SDS011;59616;52.170;5.386;2023-07-31T03:23:54;27.35;;;5.20;;
70800;SDS011;59616;52.170;5.386;2023-07-31T03:26:22;22.70;;;4.80;;
70800;SDS011;59616;52.170;5.386;2023-07-31T03:28:49;24.27;;;5.13;;
70800;SDS011;59616;52.170;5.386;2023-07-31T03:31:16;19.02;;;4.38;;
70800;SDS011;59616;52.170;5.386;2023-07-31T03:33:43;19.83;;;4.80;;
70800;SDS011;59616;52.170;5.386;2023-07-31T03:36:11;23.77;;;5.10;;
70800;SDS011;59616;52.170;5.386;2023-07-31T03:38:38;20.83;;;4.70;;
70800;SDS011;59616;52.170;5.386;2023-07-31T03:41:06;23.67;;;4.97;;
70800;SDS011;59616;52.170;5.386;2023-07-31T03:43:35;24.88;;;5.75;;
70800;SDS011;59616;52.170;5.386;2023-07-31T03:46:02;18.88;;;4.55;;
70800;SDS011;59616;52.170;5.386;2023-07-31T03:48:30;22.60;;;5.32;;
70800;SDS011;59616;52.170;5.386;2023-07-31T03:50:57;17.98;;;5.13;;
70800;SDS011;59616;52.170;5.386;2023-07-31T03:53:24;26.67;;;5.22;;
70800;SDS011;59616;52.170;5.386;2023-07-31T03:55:51;25.73;;;5.43;;
70800;SDS011;59616;52.170;5.386;2023-07-31T03:58:18;22.73;;;5.18;;
70800;SDS011;59616;52.170;5.386;2023-07-31T04:00:46;19.45;;;4.72;;
70800;SDS011;59616;52.170;5.386;2023-07-31T04:03:14;16.33;;;4.60;;
70800;SDS011;59616;52.170;5.386;2023-07-31T04:05:41;19.40;;;4.53;;
70800;SDS011;59616;52.170;5.386;2023-07-31T04:08:08;18.98;;;4.40;;
70800;SDS011;59616;52.170;5.386;2023-07-31T04:10:35;22.58;;;5.57;;
70800;SDS011;59616;52.170;5.386;2023-07-31T04:13:03;21.20;;;4.65;;
70800;SDS011;59616;52.170;5.386;2023-07-31T04:15:30;19.83;;;5.00;;
70800;SDS011;59616;52.170;5.386;2023-07-31T04:17:57;17.23;;;4.57;;
70800;SDS011;59616;52.170;5.386;2023-07-31T04:20:24;18.27;;;4.80;;
70800;SDS011;59616;52.170;5.386;2023-07-31T04:22:51;21.02;;;4.95;;
70800;SDS011;59616;52.170;5.386;2023-07-31T04:25:18;25.20;;;5.55;;
70800;SDS011;59616;52.170;5.386;2023-07-31T04:27:46;19.20;;;4.63;;
70800;SDS011;59616;52.170;5.386;2023-07-31T04:30:13;22.10;;;5.22;;
70800;SDS011;59616;52.170;5.386;2023-07-31T04:32:40;17.92;;;4.57;;
70800;SDS011;59616;52.170;5.386;2023-07-31T04:35:08;17.88;;;4.43;;
70800;SDS011;59616;52.170;5.386;2023-07-31T04:37:35;18.60;;;4.82;;
70800;SDS011;59616;52.170;5.386;2023-07-31T04:40:02;20.27;;;4.80;;
70800;SDS011;59616;52.170;5.386;2023-07-31T04:42:29;24.70;;;4.75;;
70800;SDS011;59616;52.170;5.386;2023-07-31T04:44:56;17.30;;;4.45;;
70800;SDS011;59616;52.170;5.386;2023-07-31T04:47:24;19.67;;;4.95;;
70800;SDS011;59616;52.170;5.386;2023-07-31T04:49:51;17.13;;;4.75;;
70800;SDS011;59616;52.170;5.386;2023-07-31T04:52:18;15.63;;;4.13;;
70800;SDS011;59616;52.170;5.386;2023-07-31T04:54:45;18.00;;;5.13;;
70800;SDS011;59616;52.170;5.386;2023-07-31T04:57:12;16.15;;;4.97;;
70800;SDS011;59616;52.170;5.386;2023-07-31T04:59:39;17.75;;;5.07;;
70800;SDS011;59616;52.170;5.386;2023-07-31T05:02:07;14.90;;;4.70;;
70800;SDS011;59616;52.170;5.386;2023-07-31T05:04:34;19.27;;;4.32;;
70800;SDS011;59616;52.170;5.386;2023-07-31T05:07:02;19.38;;;4.93;;
70800;SDS011;59616;52.170;5.386;2023-07-31T05:09:29;15.55;;;3.90;;
70800;SDS011;59616;52.170;5.386;2023-07-31T05:11:56;14.90;;;4.28;;
70800;SDS011;59616;52.170;5.386;2023-07-31T05:14:23;17.58;;;4.22;;
70800;SDS011;59616;52.170;5.386;2023-07-31T05:16:50;14.00;;;3.92;;
70800;SDS011;59616;52.170;5.386;2023-07-31T05:19:18;15.55;;;4.13;;
70800;SDS011;59616;52.170;5.386;2023-07-31T05:21:45;13.57;;;3.75;;
70800;SDS011;59616;52.170;5.386;2023-07-31T05:24:12;13.82;;;3.40;;
70800;SDS011;59616;52.170;5.386;2023-07-31T05:26:39;14.60;;;3.47;;
70800;SDS011;59616;52.170;5.386;2023-07-31T05:29:07;12.48;;;3.60;;
70800;SDS011;59616;52.170;5.386;2023-07-31T05:31:34;15.45;;;4.25;;
70800;SDS011;59616;52.170;5.386;2023-07-31T05:34:01;14.55;;;3.80;;
70800;SDS011;59616;52.170;5.386;2023-07-31T05:36:29;15.85;;;3.50;;
70800;SDS011;59616;52.170;5.386;2023-07-31T05:38:56;16.52;;;3.63;;
70800;SDS011;59616;52.170;5.386;2023-07-31T05:41:23;11.50;;;3.05;;
70800;SDS011;59616;52.170;5.386;2023-07-31T05:43:50;10.43;;;2.88;;
70800;SDS011;59616;52.170;5.386;2023-07-31T05:46:17;11.85;;;2.83;;
70800;SDS011;59616;52.170;5.386;2023-07-31T05:48:45;11.05;;;2.70;;
70800;SDS011;59616;52.170;5.386;2023-07-31T05:51:12;9.07;;;2.65;;
70800;SDS011;59616;52.170;5.386;2023-07-31T05:53:39;9.20;;;2.95;;
70800;SDS011;59616;52.170;5.386;2023-07-31T05:56:07;11.00;;;2.95;;
70800;SDS011;59616;52.170;5.386;2023-07-31T05:58:34;12.23;;;3.85;;
70800;SDS011;59616;52.170;5.386;2023-07-31T06:01:01;10.82;;;3.47;;
70800;SDS011;59616;52.170;5.386;2023-07-31T06:03:29;11.38;;;3.30;;
70800;SDS011;59616;52.170;5.386;2023-07-31T06:05:56;9.48;;;3.55;;
70800;SDS011;59616;52.170;5.386;2023-07-31T06:08:23;13.65;;;3.97;;
70800;SDS011;59616;52.170;5.386;2023-07-31T06:10:51;10.95;;;3.55;;
70800;SDS011;59616;52.170;5.386;2023-07-31T06:13:18;15.10;;;3.58;;
70800;SDS011;59616;52.170;5.386;2023-07-31T06:15:45;10.15;;;3.65;;
70800;SDS011;59616;52.170;5.386;2023-07-31T06:18:12;11.18;;;3.42;;
70800;SDS011;59616;52.170;5.386;2023-07-31T06:20:39;13.27;;;3.65;;
70800;SDS011;59616;52.170;5.386;2023-07-31T06:23:07;10.18;;;3.45;;
70800;SDS011;59616;52.170;5.386;2023-07-31T06:25:34;11.55;;;3.67;;
70800;SDS011;59616;52.170;5.386;2023-07-31T06:28:02;11.82;;;3.30;;
70800;SDS011;59616;52.170;5.386;2023-07-31T06:30:29;13.77;;;3.83;;
70800;SDS011;59616;52.170;5.386;2023-07-31T06:32:56;12.65;;;3.30;;
70800;SDS011;59616;52.170;5.386;2023-07-31T06:35:23;10.57;;;3.45;;
70800;SDS011;59616;52.170;5.386;2023-07-31T06:37:51;11.20;;;2.90;;
70800;SDS011;59616;52.170;5.386;2023-07-31T06:40:18;11.88;;;3.30;;
70800;SDS011;59616;52.170;5.386;2023-07-31T06:42:45;10.77;;;3.60;;
70800;SDS011;59616;52.170;5.386;2023-07-31T06:45:12;11.52;;;3.13;;
70800;SDS011;59616;52.170;5.386;2023-07-31T06:47:40;10.30;;;3.13;;
70800;SDS011;59616;52.170;5.386;2023-07-31T06:50:07;7.93;;;2.65;;
70800;SDS011;59616;52.170;5.386;2023-07-31T06:52:34;12.82;;;2.67;;
70800;SDS011;59616;52.170;5.386;2023-07-31T06:55:03;9.93;;;2.70;;
70800;SDS011;59616;52.170;5.386;2023-07-31T06:57:30;8.82;;;2.50;;
70800;SDS011;59616;52.170;5.386;2023-07-31T06:59:58;6.50;;;2.50;;
70800;SDS011;59616;52.170;5.386;2023-07-31T07:02:25;7.55;;;2.35;;
70800;SDS011;59616;52.170;5.386;2023-07-31T07:04:52;9.57;;;2.83;;
70800;SDS011;59616;52.170;5.386;2023-07-31T07:07:20;8.50;;;2.50;;
70800;SDS011;59616;52.170;5.386;2023-07-31T07:09:47;10.00;;;2.63;;
70800;SDS011;59616;52.170;5.386;2023-07-31T07:12:14;11.10;;;2.50;;
70800;SDS011;59616;52.170;5.386;2023-07-31T07:14:41;7.13;;;2.25;;
70800;SDS011;59616;52.170;5.386;2023-07-31T07:17:09;9.25;;;2.75;;
70800;SDS011;59616;52.170;5.386;2023-07-31T07:19:36;8.40;;;2.42;;
70800;SDS011;59616;52.170;5.386;2023-07-31T07:22:03;8.27;;;2.80;;
70800;SDS011;59616;52.170;5.386;2023-07-31T07:24:30;8.90;;;2.30;;
70800;SDS011;59616;52.170;5.386;2023-07-31T07:26:57;7.47;;;2.75;;
70800;SDS011;59616;52.170;5.386;2023-07-31T07:29:25;8.02;;;2.50;;
70800;SDS011;59616;52.170;5.386;2023-07-31T07:31:52;7.00;;;2.33;;
70800;SDS011;59616;52.170;5.386;2023-07-31T07:34:22;8.68;;;2.50;;
70800;SDS011;59616;52.170;5.386;2023-07-31T07:36:49;7.47;;;2.38;;
70800;SDS011;59616;52.170;5.386;2023-07-31T07:39:16;10.43;;;2.60;;
70800;SDS011;59616;52.170;5.386;2023-07-31T07:41:43;8.45;;;2.70;;
70800;SDS011;59616;52.170;5.386;2023-07-31T07:44:11;7.25;;;2.45;;
70800;SDS011;59616;52.170;5.386;2023-07-31T07:46:38;7.25;;;2.40;;
70800;SDS011;59616;52.170;5.386;2023-07-31T07:49:06;8.80;;;2.30;;
70800;SDS011;59616;52.170;5.386;2023-07-31T07:51:33;7.88;;;2.78;;
70800;SDS011;59616;52.170;5.386;2023-07-31T07:54:01;7.63;;;2.55;;
70800;SDS011;59616;52.170;5.386;2023-07-31T07:56:28;6.60;;;2.40;;
70800;SDS011;59616;52.170;5.386;2023-07-31T07:58:55;6.07;;;2.38;;
70800;SDS011;59616;52.170;5.386;2023-07-31T08:01:22;6.78;;;2.00;;
70800;SDS011;59616;52.170;5.386;2023-07-31T08:03:49;6.60;;;2.20;;
70800;SDS011;59616;52.170;5.386;2023-07-31T08:06:17;6.45;;;2.22;;
70800;SDS011;59616;52.170;5.386;2023-07-31T08:08:44;6.60;;;1.85;;
70800;SDS011;59616;52.170;5.386;2023-07-31T08:11:11;5.45;;;2.17;;
70800;SDS011;59616;52.170;5.386;2023-07-31T08:13:38;5.63;;;1.80;;
70800;SDS011;59616;52.170;5.386;2023-07-31T08:16:06;6.35;;;1.80;;
70800;SDS011;59616;52.170;5.386;2023-07-31T08:18:33;5.68;;;1.73;;
70800;SDS011;59616;52.170;5.386;2023-07-31T08:21:02;3.83;;;1.35;;
70800;SDS011;59616;52.170;5.386;2023-07-31T08:23:30;6.60;;;1.80;;
70800;SDS011;59616;52.170;5.386;2023-07-31T08:25:57;5.43;;;1.88;;
70800;SDS011;59616;52.170;5.386;2023-07-31T08:28:25;4.70;;;1.40;;
70800;SDS011;59616;52.170;5.386;2023-07-31T08:30:52;4.80;;;1.50;;
70800;SDS011;59616;52.170;5.386;2023-07-31T08:33:19;4.60;;;1.40;;
70800;SDS011;59616;52.170;5.386;2023-07-31T08:35:46;6.55;;;1.75;;
70800;SDS011;59616;52.170;5.386;2023-07-31T08:38:17;4.18;;;1.52;;
70800;SDS011;59616;52.170;5.386;2023-07-31T08:40:44;2.60;;;1.25;;
70800;SDS011;59616;52.170;5.386;2023-07-31T08:43:11;4.40;;;1.40;;
70800;SDS011;59616;52.170;5.386;2023-07-31T08:45:38;4.47;;;1.40;;
70800;SDS011;59616;52.170;5.386;2023-07-31T08:48:08;3.75;;;1.30;;
70800;SDS011;59616;52.170;5.386;2023-07-31T08:50:36;3.80;;;1.40;;
70800;SDS011;59616;52.170;5.386;2023-07-31T08:53:03;4.70;;;1.48;;
70800;SDS011;59616;52.170;5.386;2023-07-31T08:55:30;3.63;;;1.30;;
70800;SDS011;59616;52.170;5.386;2023-07-31T08:57:58;2.30;;;1.10;;
70800;SDS011;59616;52.170;5.386;2023-07-31T09:00:25;3.10;;;1.30;;
70800;SDS011;59616;52.170;5.386;2023-07-31T09:02:59;3.05;;;1.23;;
70800;SDS011;59616;52.170;5.386;2023-07-31T09:05:29;3.40;;;1.35;;
70800;SDS011;59616;52.170;5.386;2023-07-31T09:07:56;4.78;;;1.40;;
70800;SDS011;59616;52.170;5.386;2023-07-31T09:10:24;2.85;;;1.20;;
70800;SDS011;59616;52.170;5.386;2023-07-31T09:12:51;4.00;;;1.35;;
70800;SDS011;59616;52.170;5.386;2023-07-31T09:15:19;4.30;;;1.38;;
70800;SDS011;59616;52.170;5.386;2023-07-31T09:18:03;3.38;;;1.45;;
70800;SDS011;59616;52.170;5.386;2023-07-31T09:20:32;6.15;;;1.70;;
70800;SDS011;59616;52.170;5.386;2023-07-31T09:23:07;4.68;;;1.70;;
70800;SDS011;59616;52.170;5.386;2023-07-31T09:25:35;3.83;;;1.40;;
70800;SDS011;59616;52.170;5.386;2023-07-31T09:30:30;4.78;;;1.58;;
70800;SDS011;59616;52.170;5.386;2023-07-31T09:33:01;7.30;;;1.80;;
70800;SDS011;59616;52.170;5.386;2023-07-31T09:35:29;4.22;;;1.70;;
70800;SDS011;59616;52.170;5.386;2023-07-31T09:37:57;5.15;;;1.67;;
70800;SDS011;59616;52.170;5.386;2023-07-31T09:40:26;4.28;;;1.60;;
70800;SDS011;59616;52.170;5.386;2023-07-31T09:42:57;3.83;;;1.60;;
70800;SDS011;59616;52.170;5.386;2023-07-31T09:45:25;6.25;;;1.60;;
70800;SDS011;59616;52.170;5.386;2023-07-31T09:50:39;5.80;;;2.00;;
70800;SDS011;59616;52.170;5.386;2023-07-31T09:53:06;4.38;;;1.60;;
70800;SDS011;59616;52.170;5.386;2023-07-31T09:55:34;4.28;;;1.73;;
70800;SDS011;59616;52.170;5.386;2023-07-31T09:58:05;4.43;;;1.80;;
70800;SDS011;59616;52.170;5.386;2023-07-31T10:00:35;7.28;;;1.80;;
70800;SDS011;59616;52.170;5.386;2023-07-31T10:03:09;4.60;;;1.70;;
70800;SDS011;59616;52.170;5.386;2023-07-31T10:08:04;4.68;;;1.70;;
70800;SDS011;59616;52.170;5.386;2023-07-31T10:10:31;4.32;;;1.65;;
70800;SDS011;59616;52.170;5.386;2023-07-31T10:12:59;5.22;;;1.60;;
70800;SDS011;59616;52.170;5.386;2023-07-31T10:15:27;4.28;;;1.48;;
70800;SDS011;59616;52.170;5.386;2023-07-31T10:17:54;5.65;;;1.88;;
70800;SDS011;59616;52.170;5.386;2023-07-31T10:20:23;4.25;;;1.70;;
70800;SDS011;59616;52.170;5.386;2023-07-31T10:22:51;6.22;;;1.80;;
70800;SDS011;59616;52.170;5.386;2023-07-31T10:25:18;6.50;;;2.20;;
70800;SDS011;59616;52.170;5.386;2023-07-31T10:27:47;5.95;;;2.33;;
70800;SDS011;59616;52.170;5.386;2023-07-31T10:30:15;7.07;;;2.40;;
70800;SDS011;59616;52.170;5.386;2023-07-31T10:32:45;6.90;;;2.42;;
70800;SDS011;59616;52.170;5.386;2023-07-31T10:35:14;7.57;;;2.70;;
70800;SDS011;59616;52.170;5.386;2023-07-31T10:37:43;7.32;;;2.50;;
70800;SDS011;59616;52.170;5.386;2023-07-31T10:40:19;8.20;;;2.88;;
70800;SDS011;59616;52.170;5.386;2023-07-31T10:42:48;6.57;;;2.67;;
70800;SDS011;59616;52.170;5.386;2023-07-31T10:45:23;6.65;;;2.83;;
70800;SDS011;59616;52.170;5.386;2023-07-31T10:48:04;7.60;;;3.00;;
70800;SDS011;59616;52.170;5.386;2023-07-31T10:50:38;8.70;;;3.13;;
70800;SDS011;59616;52.170;5.386;2023-07-31T10:53:05;8.32;;;2.88;;
70800;SDS011;59616;52.170;5.386;2023-07-31T10:55:40;9.80;;;3.03;;
70800;SDS011;59616;52.170;5.386;2023-07-31T10:58:09;8.40;;;2.92;;
70800;SDS011;59616;52.170;5.386;2023-07-31T11:00:46;8.50;;;2.78;;
70800;SDS011;59616;52.170;5.386;2023-07-31T11:03:18;6.88;;;2.72;;
70800;SDS011;59616;52.170;5.386;2023-07-31T11:08:24;6.40;;;2.42;;
70800;SDS011;59616;52.170;5.386;2023-07-31T11:11:07;8.77;;;2.85;;
70800;SDS011;59616;52.170;5.386;2023-07-31T11:16:08;6.88;;;2.40;;
70800;SDS011;59616;52.170;5.386;2023-07-31T11:18:37;5.90;;;2.03;;
70800;SDS011;59616;52.170;5.386;2023-07-31T11:21:06;5.63;;;2.03;;
70800;SDS011;59616;52.170;5.386;2023-07-31T11:23:33;6.35;;;2.17;;
70800;SDS011;59616;52.170;5.386;2023-07-31T11:26:04;6.93;;;1.98;;
70800;SDS011;59616;52.170;5.386;2023-07-31T11:28:32;6.18;;;1.83;;
70800;SDS011;59616;52.170;5.386;2023-07-31T11:31:03;4.72;;;1.83;;
70800;SDS011;59616;52.170;5.386;2023-07-31T11:33:30;5.05;;;1.77;;
70800;SDS011;59616;52.170;5.386;2023-07-31T11:35:57;4.68;;;1.73;;
70800;SDS011;59616;52.170;5.386;2023-07-31T11:38:25;5.55;;;1.80;;
70800;SDS011;59616;52.170;5.386;2023-07-31T11:40:53;4.80;;;1.77;;
70800;SDS011;59616;52.170;5.386;2023-07-31T11:43:21;4.25;;;1.63;;
70800;SDS011;59616;52.170;5.386;2023-07-31T11:45:58;3.95;;;1.60;;
70800;SDS011;59616;52.170;5.386;2023-07-31T11:48:27;6.85;;;1.80;;
70800;SDS011;59616;52.170;5.386;2023-07-31T11:50:59;5.05;;;2.00;;
70800;SDS011;59616;52.170;5.386;2023-07-31T11:53:35;4.68;;;1.85;;
70800;SDS011;59616;52.170;5.386;2023-07-31T11:56:03;6.28;;;2.05;;
70800;SDS011;59616;52.170;5.386;2023-07-31T11:58:31;6.03;;;2.05;;
70800;SDS011;59616;52.170;5.386;2023-07-31T12:00:58;6.35;;;2.00;;
70800;SDS011;59616;52.170;5.386;2023-07-31T12:03:26;5.15;;;2.17;;
70800;SDS011;59616;52.170;5.386;2023-07-31T12:05:54;6.30;;;2.40;;
70800;SDS011;59616;52.170;5.386;2023-07-31T12:08:21;7.80;;;2.80;;
70800;SDS011;59616;52.170;5.386;2023-07-31T12:10:50;6.82;;;2.50;;
70800;SDS011;59616;52.170;5.386;2023-07-31T12:13:21;7.60;;;2.85;;
70800;SDS011;59616;52.170;5.386;2023-07-31T12:15:48;8.23;;;2.70;;
70800;SDS011;59616;52.170;5.386;2023-07-31T12:18:18;7.65;;;2.80;;
70800;SDS011;59616;52.170;5.386;2023-07-31T12:20:47;6.80;;;2.30;;
70800;SDS011;59616;52.170;5.386;2023-07-31T12:23:16;6.93;;;2.30;;
70800;SDS011;59616;52.170;5.386;2023-07-31T12:25:44;7.82;;;2.65;;
70800;SDS011;59616;52.170;5.386;2023-07-31T12:28:11;6.97;;;2.42;;
70800;SDS011;59616;52.170;5.386;2023-07-31T12:30:39;9.30;;;2.50;;
70800;SDS011;59616;52.170;5.386;2023-07-31T12:33:11;6.05;;;2.50;;
70800;SDS011;59616;52.170;5.386;2023-07-31T12:35:43;6.57;;;2.15;;
70800;SDS011;59616;52.170;5.386;2023-07-31T12:38:11;6.55;;;2.28;;
70800;SDS011;59616;52.170;5.386;2023-07-31T12:40:40;4.93;;;2.00;;
70800;SDS011;59616;52.170;5.386;2023-07-31T12:43:07;8.00;;;2.33;;
70800;SDS011;59616;52.170;5.386;2023-07-31T12:45:35;5.80;;;2.05;;
70800;SDS011;59616;52.170;5.386;2023-07-31T12:48:02;6.22;;;2.33;;
70800;SDS011;59616;52.170;5.386;2023-07-31T12:50:29;6.32;;;2.80;;
70800;SDS011;59616;52.170;5.386;2023-07-31T12:52:57;7.35;;;2.50;;
70800;SDS011;59616;52.170;5.386;2023-07-31T12:55:24;8.88;;;2.60;;
70800;SDS011;59616;52.170;5.386;2023-07-31T12:57:51;7.40;;;2.85;;
70800;SDS011;59616;52.170;5.386;2023-07-31T13:00:20;6.85;;;2.50;;
70800;SDS011;59616;52.170;5.386;2023-07-31T13:02:47;5.95;;;2.35;;
70800;SDS011;59616;52.170;5.386;2023-07-31T13:05:15;6.78;;;2.53;;
70800;SDS011;59616;52.170;5.386;2023-07-31T13:07:42;8.25;;;2.47;;
70800;SDS011;59616;52.170;5.386;2023-07-31T13:10:09;6.45;;;2.53;;
70800;SDS011;59616;52.170;5.386;2023-07-31T13:12:37;6.72;;;2.50;;
70800;SDS011;59616;52.170;5.386;2023-07-31T13:15:04;7.95;;;2.72;;
70800;SDS011;59616;52.170;5.386;2023-07-31T13:17:32;6.93;;;2.55;;
70800;SDS011;59616;52.170;5.386;2023-07-31T13:19:59;6.13;;;2.42;;
70800;SDS011;59616;52.170;5.386;2023-07-31T13:22:26;6.68;;;2.75;;
70800;SDS011;59616;52.170;5.386;2023-07-31T13:24:54;6.45;;;2.70;;
70800;SDS011;59616;52.170;5.386;2023-07-31T13:27:21;6.25;;;2.70;;
70800;SDS011;59616;52.170;5.386;2023-07-31T13:29:48;7.40;;;2.65;;
70800;SDS011;59616;52.170;5.386;2023-07-31T13:32:16;7.25;;;2.80;;
70800;SDS011;59616;52.170;5.386;2023-07-31T13:34:44;7.00;;;2.88;;
70800;SDS011;59616;52.170;5.386;2023-07-31T13:37:11;6.68;;;2.50;;
70800;SDS011;59616;52.170;5.386;2023-07-31T13:39:39;5.82;;;2.05;;
70800;SDS011;59616;52.170;5.386;2023-07-31T13:42:07;5.35;;;2.20;;
70800;SDS011;59616;52.170;5.386;2023-07-31T13:44:35;6.35;;;2.13;;
70800;SDS011;59616;52.170;5.386;2023-07-31T13:47:02;7.40;;;2.42;;
70800;SDS011;59616;52.170;5.386;2023-07-31T13:49:29;6.63;;;1.70;;
70800;SDS011;59616;52.170;5.386;2023-07-31T13:51:57;4.45;;;1.48;;
70800;SDS011;59616;52.170;5.386;2023-07-31T13:54:24;2.80;;;1.25;;
70800;SDS011;59616;52.170;5.386;2023-07-31T13:56:56;4.45;;;1.13;;
70800;SDS011;59616;52.170;5.386;2023-07-31T13:59:24;2.40;;;1.00;;
70800;SDS011;59616;52.170;5.386;2023-07-31T14:01:51;3.92;;;1.40;;
70800;SDS011;59616;52.170;5.386;2023-07-31T14:04:18;3.47;;;1.25;;
70800;SDS011;59616;52.170;5.386;2023-07-31T14:06:45;3.10;;;1.40;;
70800;SDS011;59616;52.170;5.386;2023-07-31T14:09:14;4.68;;;1.40;;
70800;SDS011;59616;52.170;5.386;2023-07-31T14:11:41;3.17;;;1.30;;
70800;SDS011;59616;52.170;5.386;2023-07-31T14:14:09;3.70;;;1.20;;
70800;SDS011;59616;52.170;5.386;2023-07-31T14:16:36;4.47;;;1.30;;
70800;SDS011;59616;52.170;5.386;2023-07-31T14:19:04;3.72;;;1.50;;
70800;SDS011;59616;52.170;5.386;2023-07-31T14:21:31;4.93;;;1.25;;
70800;SDS011;59616;52.170;5.386;2023-07-31T14:23:59;6.88;;;1.88;;
70800;SDS011;59616;52.170;5.386;2023-07-31T14:26:26;4.75;;;1.60;;
70800;SDS011;59616;52.170;5.386;2023-07-31T14:28:53;5.47;;;1.77;;
70800;SDS011;59616;52.170;5.386;2023-07-31T14:31:20;6.05;;;2.08;;
70800;SDS011;59616;52.170;5.386;2023-07-31T14:33:48;7.07;;;2.20;;
70800;SDS011;59616;52.170;5.386;2023-07-31T14:36:15;9.45;;;3.63;;
70800;SDS011;59616;52.170;5.386;2023-07-31T14:38:42;8.82;;;3.42;;
70800;SDS011;59616;52.170;5.386;2023-07-31T14:41:09;8.10;;;3.33;;
70800;SDS011;59616;52.170;5.386;2023-07-31T14:43:36;10.15;;;3.95;;
70800;SDS011;59616;52.170;5.386;2023-07-31T14:46:04;8.82;;;4.43;;
70800;SDS011;59616;52.170;5.386;2023-07-31T14:48:31;9.90;;;4.40;;
70800;SDS011;59616;52.170;5.386;2023-07-31T14:50:58;9.85;;;4.53;;
70800;SDS011;59616;52.170;5.386;2023-07-31T14:53:26;11.05;;;4.85;;
70800;SDS011;59616;52.170;5.386;2023-07-31T14:55:53;11.15;;;5.18;;
70800;SDS011;59616;52.170;5.386;2023-07-31T14:58:20;12.30;;;4.95;;
70800;SDS011;59616;52.170;5.386;2023-07-31T15:00:48;9.55;;;4.30;;
70800;SDS011;59616;52.170;5.386;2023-07-31T15:03:15;8.57;;;3.58;;